sensor_id;sensor_type;location;lat;lon;timestamp;P1;durP1;ratioP1;P2;durP2;ratioP2
50010;SDS011;35899;50.352;19.390;2024-03-22T00:00:02;37.20;;;17.70;;
50010;SDS011;35899;50.352;19.390;2024-03-22T00:02:58;29.50;;;16.60;;
50010;SDS011;35899;50.352;19.390;2024-03-22T00:05:26;32.80;;;17.40;;
50010;SDS011;35899;50.352;19.390;2024-03-22T00:07:53;28.60;;;15.70;;
50010;SDS011;35899;50.352;19.390;2024-03-22T00:10:21;25.90;;;15.70;;
50010;SDS011;35899;50.352;19.390;2024-03-22T00:12:49;25.30;;;15.20;;
50010;SDS011;35899;50.352;19.390;2024-03-22T00:15:17;25.60;;;15.00;;
50010;SDS011;35899;50.352;19.390;2024-03-22T00:17:44;24.70;;;14.50;;
50010;SDS011;35899;50.352;19.390;2024-03-22T00:20:12;26.20;;;14.30;;
50010;SDS011;35899;50.352;19.390;2024-03-22T00:22:40;27.50;;;14.20;;
50010;SDS011;35899;50.352;19.390;2024-03-22T00:25:07;26.20;;;14.20;;
50010;SDS011;35899;50.352;19.390;2024-03-22T00:27:35;23.20;;;13.70;;
50010;SDS011;35899;50.352;19.390;2024-03-22T00:30:03;26.70;;;14.40;;
50010;SDS011;35899;50.352;19.390;2024-03-22T00:32:31;24.20;;;14.20;;
50010;SDS011;35899;50.352;19.390;2024-03-22T00:34:59;24.60;;;13.30;;
50010;SDS011;35899;50.352;19.390;2024-03-22T00:37:27;24.50;;;14.00;;
50010;SDS011;35899;50.352;19.390;2024-03-22T00:39:54;22.10;;;13.10;;
50010;SDS011;35899;50.352;19.390;2024-03-22T00:42:22;21.90;;;13.40;;
50010;SDS011;35899;50.352;19.390;2024-03-22T00:44:50;23.60;;;12.30;;
50010;SDS011;35899;50.352;19.390;2024-03-22T00:47:18;25.70;;;12.90;;
50010;SDS011;35899;50.352;19.390;2024-03-22T00:49:45;24.30;;;13.10;;
50010;SDS011;35899;50.352;19.390;2024-03-22T00:52:13;24.40;;;14.00;;
50010;SDS011;35899;50.352;19.390;2024-03-22T00:54:40;22.90;;;13.70;;
50010;SDS011;35899;50.352;19.390;2024-03-22T00:57:08;26.60;;;13.50;;
50010;SDS011;35899;50.352;19.390;2024-03-22T00:59:36;24.50;;;14.30;;
50010;SDS011;35899;50.352;19.390;2024-03-22T01:02:04;23.20;;;13.60;;
50010;SDS011;35899;50.352;19.390;2024-03-22T01:04:31;24.50;;;13.10;;
50010;SDS011;35899;50.352;19.390;2024-03-22T01:06:59;22.50;;;14.10;;
50010;SDS011;35899;50.352;19.390;2024-03-22T01:09:27;29.00;;;15.70;;
50010;SDS011;35899;50.352;19.390;2024-03-22T01:11:54;23.70;;;13.80;;
50010;SDS011;35899;50.352;19.390;2024-03-22T01:14:22;21.90;;;13.90;;
50010;SDS011;35899;50.352;19.390;2024-03-22T01:16:50;23.80;;;13.60;;
50010;SDS011;35899;50.352;19.390;2024-03-22T01:19:17;26.10;;;14.30;;
50010;SDS011;35899;50.352;19.390;2024-03-22T01:21:45;22.20;;;13.20;;
50010;SDS011;35899;50.352;19.390;2024-03-22T01:24:12;23.90;;;14.10;;
50010;SDS011;35899;50.352;19.390;2024-03-22T01:26:40;24.70;;;15.10;;
50010;SDS011;35899;50.352;19.390;2024-03-22T01:29:07;22.50;;;13.90;;
50010;SDS011;35899;50.352;19.390;2024-03-22T01:31:35;23.10;;;13.80;;
50010;SDS011;35899;50.352;19.390;2024-03-22T01:34:03;27.70;;;15.80;;
50010;SDS011;35899;50.352;19.390;2024-03-22T01:36:30;24.00;;;14.10;;
50010;SDS011;35899;50.352;19.390;2024-03-22T01:38:58;28.80;;;15.10;;
50010;SDS011;35899;50.352;19.390;2024-03-22T01:41:26;24.20;;;14.40;;
50010;SDS011;35899;50.352;19.390;2024-03-22T01:43:54;24.10;;;13.90;;
50010;SDS011;35899;50.352;19.390;2024-03-22T01:46:22;24.90;;;14.70;;
50010;SDS011;35899;50.352;19.390;2024-03-22T01:48:50;28.90;;;16.30;;
50010;SDS011;35899;50.352;19.390;2024-03-22T01:51:18;25.40;;;15.40;;
50010;SDS011;35899;50.352;19.390;2024-03-22T01:53:46;30.50;;;17.20;;
50010;SDS011;35899;50.352;19.390;2024-03-22T01:56:14;29.00;;;16.50;;
50010;SDS011;35899;50.352;19.390;2024-03-22T01:58:42;27.50;;;16.60;;
50010;SDS011;35899;50.352;19.390;2024-03-22T02:01:10;30.90;;;17.20;;
50010;SDS011;35899;50.352;19.390;2024-03-22T02:03:38;30.10;;;17.70;;
50010;SDS011;35899;50.352;19.390;2024-03-22T02:06:06;32.70;;;18.00;;
50010;SDS011;35899;50.352;19.390;2024-03-22T02:08:33;28.90;;;18.20;;
50010;SDS011;35899;50.352;19.390;2024-03-22T02:11:01;34.00;;;19.60;;
50010;SDS011;35899;50.352;19.390;2024-03-22T02:13:29;31.60;;;18.90;;
50010;SDS011;35899;50.352;19.390;2024-03-22T02:15:57;33.70;;;20.60;;
50010;SDS011;35899;50.352;19.390;2024-03-22T02:18:25;37.30;;;19.70;;
50010;SDS011;35899;50.352;19.390;2024-03-22T02:20:52;39.00;;;22.50;;
50010;SDS011;35899;50.352;19.390;2024-03-22T02:23:54;38.40;;;22.20;;
50010;SDS011;35899;50.352;19.390;2024-03-22T02:26:14;39.00;;;22.30;;
50010;SDS011;35899;50.352;19.390;2024-03-22T02:28:42;38.10;;;21.70;;
50010;SDS011;35899;50.352;19.390;2024-03-22T02:31:10;39.30;;;23.00;;
50010;SDS011;35899;50.352;19.390;2024-03-22T02:33:38;35.90;;;20.70;;
50010;SDS011;35899;50.352;19.390;2024-03-22T02:36:06;38.40;;;20.70;;
50010;SDS011;35899;50.352;19.390;2024-03-22T02:38:34;38.00;;;22.40;;
50010;SDS011;35899;50.352;19.390;2024-03-22T02:41:01;36.30;;;21.80;;
50010;SDS011;35899;50.352;19.390;2024-03-22T02:43:29;35.60;;;21.80;;
50010;SDS011;35899;50.352;19.390;2024-03-22T02:45:56;38.80;;;22.10;;
50010;SDS011;35899;50.352;19.390;2024-03-22T02:48:24;39.10;;;21.80;;
50010;SDS011;35899;50.352;19.390;2024-03-22T02:50:54;38.70;;;20.80;;
50010;SDS011;35899;50.352;19.390;2024-03-22T02:53:23;34.60;;;21.10;;
50010;SDS011;35899;50.352;19.390;2024-03-22T02:55:50;34.10;;;21.50;;
50010;SDS011;35899;50.352;19.390;2024-03-22T02:58:19;36.00;;;21.40;;
50010;SDS011;35899;50.352;19.390;2024-03-22T03:00:47;37.00;;;21.30;;
50010;SDS011;35899;50.352;19.390;2024-03-22T03:03:15;34.30;;;21.20;;
50010;SDS011;35899;50.352;19.390;2024-03-22T03:05:43;34.20;;;20.80;;
50010;SDS011;35899;50.352;19.390;2024-03-22T03:08:11;36.20;;;20.30;;
50010;SDS011;35899;50.352;19.390;2024-03-22T03:10:38;34.10;;;20.60;;
50010;SDS011;35899;50.352;19.390;2024-03-22T03:13:06;35.80;;;21.10;;
50010;SDS011;35899;50.352;19.390;2024-03-22T03:15:33;37.50;;;20.50;;
50010;SDS011;35899;50.352;19.390;2024-03-22T03:18:01;32.80;;;19.30;;
50010;SDS011;35899;50.352;19.390;2024-03-22T03:20:29;35.10;;;20.20;;
50010;SDS011;35899;50.352;19.390;2024-03-22T03:22:56;33.40;;;19.60;;
50010;SDS011;35899;50.352;19.390;2024-03-22T03:25:24;34.50;;;20.40;;
50010;SDS011;35899;50.352;19.390;2024-03-22T03:27:52;36.30;;;20.70;;
50010;SDS011;35899;50.352;19.390;2024-03-22T03:30:19;33.60;;;20.30;;
50010;SDS011;35899;50.352;19.390;2024-03-22T03:32:47;35.70;;;20.70;;
50010;SDS011;35899;50.352;19.390;2024-03-22T03:35:15;33.60;;;20.40;;
50010;SDS011;35899;50.352;19.390;2024-03-22T03:37:43;35.30;;;21.30;;
50010;SDS011;35899;50.352;19.390;2024-03-22T03:40:10;35.80;;;20.30;;
50010;SDS011;35899;50.352;19.390;2024-03-22T03:42:38;34.00;;;20.70;;
50010;SDS011;35899;50.352;19.390;2024-03-22T03:45:06;35.30;;;20.90;;
50010;SDS011;35899;50.352;19.390;2024-03-22T03:47:34;31.80;;;19.40;;
50010;SDS011;35899;50.352;19.390;2024-03-22T03:50:02;35.40;;;21.40;;
50010;SDS011;35899;50.352;19.390;2024-03-22T03:52:30;34.40;;;20.60;;
50010;SDS011;35899;50.352;19.390;2024-03-22T03:54:57;38.30;;;20.70;;
50010;SDS011;35899;50.352;19.390;2024-03-22T03:57:25;31.50;;;19.50;;
50010;SDS011;35899;50.352;19.390;2024-03-22T03:59:53;33.30;;;19.90;;
50010;SDS011;35899;50.352;19.390;2024-03-22T04:02:21;34.50;;;20.20;;
50010;SDS011;35899;50.352;19.390;2024-03-22T04:04:51;33.80;;;20.00;;
50010;SDS011;35899;50.352;19.390;2024-03-22T04:07:23;34.40;;;19.90;;
50010;SDS011;35899;50.352;19.390;2024-03-22T04:09:51;32.00;;;18.60;;
50010;SDS011;35899;50.352;19.390;2024-03-22T04:12:18;30.20;;;18.50;;
50010;SDS011;35899;50.352;19.390;2024-03-22T04:14:46;36.50;;;20.20;;
50010;SDS011;35899;50.352;19.390;2024-03-22T04:17:14;32.00;;;20.20;;
50010;SDS011;35899;50.352;19.390;2024-03-22T04:19:42;35.40;;;21.10;;
50010;SDS011;35899;50.352;19.390;2024-03-22T04:22:09;35.50;;;20.50;;
50010;SDS011;35899;50.352;19.390;2024-03-22T04:24:37;32.60;;;20.10;;
50010;SDS011;35899;50.352;19.390;2024-03-22T04:27:05;34.70;;;20.30;;
50010;SDS011;35899;50.352;19.390;2024-03-22T04:29:32;36.10;;;20.40;;
50010;SDS011;35899;50.352;19.390;2024-03-22T04:32:00;32.40;;;19.80;;
50010;SDS011;35899;50.352;19.390;2024-03-22T04:34:28;32.90;;;20.90;;
50010;SDS011;35899;50.352;19.390;2024-03-22T04:36:56;31.60;;;19.00;;
50010;SDS011;35899;50.352;19.390;2024-03-22T04:39:25;32.60;;;19.90;;
50010;SDS011;35899;50.352;19.390;2024-03-22T04:41:53;32.70;;;19.40;;
50010;SDS011;35899;50.352;19.390;2024-03-22T04:44:21;32.30;;;20.30;;
50010;SDS011;35899;50.352;19.390;2024-03-22T04:46:48;33.30;;;20.30;;
50010;SDS011;35899;50.352;19.390;2024-03-22T04:49:16;34.10;;;20.80;;
50010;SDS011;35899;50.352;19.390;2024-03-22T04:51:43;31.10;;;19.80;;
50010;SDS011;35899;50.352;19.390;2024-03-22T04:54:11;32.80;;;19.10;;
50010;SDS011;35899;50.352;19.390;2024-03-22T04:56:39;35.60;;;20.90;;
50010;SDS011;35899;50.352;19.390;2024-03-22T04:59:07;34.60;;;20.00;;
50010;SDS011;35899;50.352;19.390;2024-03-22T05:01:34;32.30;;;19.00;;
50010;SDS011;35899;50.352;19.390;2024-03-22T05:04:02;32.20;;;19.30;;
50010;SDS011;35899;50.352;19.390;2024-03-22T05:06:30;35.20;;;19.90;;
50010;SDS011;35899;50.352;19.390;2024-03-22T05:08:59;34.10;;;20.30;;
50010;SDS011;35899;50.352;19.390;2024-03-22T05:11:27;34.50;;;20.80;;
50010;SDS011;35899;50.352;19.390;2024-03-22T05:13:54;32.80;;;19.80;;
50010;SDS011;35899;50.352;19.390;2024-03-22T05:16:22;33.70;;;20.50;;
50010;SDS011;35899;50.352;19.390;2024-03-22T05:18:50;33.10;;;20.80;;
50010;SDS011;35899;50.352;19.390;2024-03-22T05:21:17;33.00;;;20.40;;
50010;SDS011;35899;50.352;19.390;2024-03-22T05:23:45;33.60;;;19.40;;
50010;SDS011;35899;50.352;19.390;2024-03-22T05:26:12;34.60;;;19.90;;
50010;SDS011;35899;50.352;19.390;2024-03-22T05:28:40;33.10;;;19.50;;
50010;SDS011;35899;50.352;19.390;2024-03-22T05:31:08;31.70;;;19.90;;
50010;SDS011;35899;50.352;19.390;2024-03-22T05:33:35;27.10;;;17.10;;
50010;SDS011;35899;50.352;19.390;2024-03-22T05:36:05;31.30;;;19.30;;
50010;SDS011;35899;50.352;19.390;2024-03-22T05:38:33;30.80;;;18.60;;
50010;SDS011;35899;50.352;19.390;2024-03-22T05:41:04;31.70;;;19.40;;
50010;SDS011;35899;50.352;19.390;2024-03-22T05:43:32;35.10;;;18.80;;
50010;SDS011;35899;50.352;19.390;2024-03-22T05:45:59;28.00;;;18.20;;
50010;SDS011;35899;50.352;19.390;2024-03-22T05:48:27;29.70;;;18.30;;
50010;SDS011;35899;50.352;19.390;2024-03-22T05:50:55;30.80;;;17.90;;
50010;SDS011;35899;50.352;19.390;2024-03-22T05:53:22;28.80;;;18.10;;
50010;SDS011;35899;50.352;19.390;2024-03-22T05:55:50;31.50;;;19.30;;
50010;SDS011;35899;50.352;19.390;2024-03-22T05:58:18;29.90;;;18.40;;
50010;SDS011;35899;50.352;19.390;2024-03-22T06:00:45;30.50;;;17.60;;
50010;SDS011;35899;50.352;19.390;2024-03-22T06:03:14;33.60;;;20.00;;
50010;SDS011;35899;50.352;19.390;2024-03-22T06:05:41;34.00;;;20.80;;
50010;SDS011;35899;50.352;19.390;2024-03-22T06:08:09;35.70;;;21.30;;
50010;SDS011;35899;50.352;19.390;2024-03-22T06:10:37;37.30;;;22.90;;
50010;SDS011;35899;50.352;19.390;2024-03-22T06:13:05;34.30;;;21.90;;
50010;SDS011;35899;50.352;19.390;2024-03-22T06:15:32;38.90;;;23.80;;
50010;SDS011;35899;50.352;19.390;2024-03-22T06:18:00;39.80;;;23.90;;
50010;SDS011;35899;50.352;19.390;2024-03-22T06:20:27;41.60;;;25.40;;
50010;SDS011;35899;50.352;19.390;2024-03-22T06:22:56;39.80;;;24.10;;
50010;SDS011;35899;50.352;19.390;2024-03-22T06:25:24;41.00;;;23.40;;
50010;SDS011;35899;50.352;19.390;2024-03-22T06:27:52;39.90;;;23.50;;
50010;SDS011;35899;50.352;19.390;2024-03-22T06:30:19;40.90;;;23.30;;
50010;SDS011;35899;50.352;19.390;2024-03-22T06:32:47;37.20;;;22.00;;
50010;SDS011;35899;50.352;19.390;2024-03-22T06:35:15;39.20;;;23.60;;
50010;SDS011;35899;50.352;19.390;2024-03-22T06:37:43;40.00;;;22.80;;
50010;SDS011;35899;50.352;19.390;2024-03-22T06:40:11;38.30;;;22.70;;
50010;SDS011;35899;50.352;19.390;2024-03-22T06:42:39;37.50;;;22.70;;
50010;SDS011;35899;50.352;19.390;2024-03-22T06:45:06;35.30;;;21.10;;
50010;SDS011;35899;50.352;19.390;2024-03-22T06:47:34;37.10;;;22.50;;
50010;SDS011;35899;50.352;19.390;2024-03-22T06:50:02;36.50;;;21.80;;
50010;SDS011;35899;50.352;19.390;2024-03-22T06:52:30;35.50;;;20.10;;
50010;SDS011;35899;50.352;19.390;2024-03-22T06:54:57;38.10;;;21.30;;
50010;SDS011;35899;50.352;19.390;2024-03-22T06:57:25;34.60;;;18.90;;
50010;SDS011;35899;50.352;19.390;2024-03-22T06:59:53;35.20;;;20.80;;
50010;SDS011;35899;50.352;19.390;2024-03-22T07:02:20;39.00;;;21.80;;
50010;SDS011;35899;50.352;19.390;2024-03-22T07:04:48;44.40;;;25.20;;
50010;SDS011;35899;50.352;19.390;2024-03-22T07:07:15;46.90;;;25.20;;
50010;SDS011;35899;50.352;19.390;2024-03-22T07:09:43;58.40;;;29.90;;
50010;SDS011;35899;50.352;19.390;2024-03-22T07:12:11;56.40;;;30.30;;
50010;SDS011;35899;50.352;19.390;2024-03-22T07:14:39;52.30;;;27.20;;
50010;SDS011;35899;50.352;19.390;2024-03-22T07:17:06;52.10;;;26.30;;
50010;SDS011;35899;50.352;19.390;2024-03-22T07:19:34;39.70;;;21.40;;
50010;SDS011;35899;50.352;19.390;2024-03-22T07:22:02;40.60;;;19.50;;
50010;SDS011;35899;50.352;19.390;2024-03-22T07:24:30;29.80;;;17.30;;
50010;SDS011;35899;50.352;19.390;2024-03-22T07:26:57;31.60;;;16.30;;
50010;SDS011;35899;50.352;19.390;2024-03-22T07:29:25;30.50;;;15.70;;
50010;SDS011;35899;50.352;19.390;2024-03-22T07:31:53;31.50;;;16.10;;
50010;SDS011;35899;50.352;19.390;2024-03-22T07:34:20;34.20;;;16.60;;
50010;SDS011;35899;50.352;19.390;2024-03-22T07:36:48;29.80;;;15.20;;
50010;SDS011;35899;50.352;19.390;2024-03-22T07:39:16;28.70;;;13.40;;
50010;SDS011;35899;50.352;19.390;2024-03-22T07:41:43;26.50;;;13.70;;
50010;SDS011;35899;50.352;19.390;2024-03-22T07:44:11;28.40;;;13.70;;
50010;SDS011;35899;50.352;19.390;2024-03-22T07:46:39;28.40;;;12.80;;
50010;SDS011;35899;50.352;19.390;2024-03-22T07:49:07;25.60;;;12.30;;
50010;SDS011;35899;50.352;19.390;2024-03-22T07:51:35;25.00;;;11.70;;
50010;SDS011;35899;50.352;19.390;2024-03-22T07:54:03;25.60;;;10.50;;
50010;SDS011;35899;50.352;19.390;2024-03-22T07:56:31;26.80;;;11.70;;
50010;SDS011;35899;50.352;19.390;2024-03-22T07:58:59;24.30;;;11.40;;
50010;SDS011;35899;50.352;19.390;2024-03-22T08:01:27;26.40;;;11.60;;
50010;SDS011;35899;50.352;19.390;2024-03-22T08:03:54;22.40;;;11.50;;
50010;SDS011;35899;50.352;19.390;2024-03-22T08:06:22;21.40;;;11.60;;
50010;SDS011;35899;50.352;19.390;2024-03-22T08:08:50;21.60;;;10.90;;
50010;SDS011;35899;50.352;19.390;2024-03-22T08:11:18;18.60;;;10.30;;
50010;SDS011;35899;50.352;19.390;2024-03-22T08:13:46;21.80;;;11.70;;
50010;SDS011;35899;50.352;19.390;2024-03-22T08:16:13;22.20;;;12.00;;
50010;SDS011;35899;50.352;19.390;2024-03-22T08:18:41;22.40;;;11.80;;
50010;SDS011;35899;50.352;19.390;2024-03-22T08:21:09;22.10;;;11.70;;
50010;SDS011;35899;50.352;19.390;2024-03-22T08:23:37;22.10;;;12.80;;
50010;SDS011;35899;50.352;19.390;2024-03-22T08:26:05;20.90;;;12.20;;
50010;SDS011;35899;50.352;19.390;2024-03-22T08:28:33;22.40;;;12.90;;
50010;SDS011;35899;50.352;19.390;2024-03-22T08:31:06;20.00;;;11.70;;
50010;SDS011;35899;50.352;19.390;2024-03-22T08:33:34;20.70;;;12.30;;
50010;SDS011;35899;50.352;19.390;2024-03-22T08:36:02;18.20;;;11.30;;
50010;SDS011;35899;50.352;19.390;2024-03-22T08:38:30;21.90;;;13.60;;
50010;SDS011;35899;50.352;19.390;2024-03-22T08:40:58;22.00;;;13.50;;
50010;SDS011;35899;50.352;19.390;2024-03-22T08:43:26;21.20;;;12.70;;
50010;SDS011;35899;50.352;19.390;2024-03-22T08:45:54;19.70;;;13.20;;
50010;SDS011;35899;50.352;19.390;2024-03-22T08:48:22;19.50;;;12.30;;
50010;SDS011;35899;50.352;19.390;2024-03-22T08:50:50;18.70;;;12.50;;
50010;SDS011;35899;50.352;19.390;2024-03-22T08:53:18;21.30;;;13.90;;
50010;SDS011;35899;50.352;19.390;2024-03-22T08:55:49;20.80;;;13.30;;
50010;SDS011;35899;50.352;19.390;2024-03-22T08:58:19;19.90;;;12.80;;
50010;SDS011;35899;50.352;19.390;2024-03-22T09:00:47;19.80;;;12.70;;
50010;SDS011;35899;50.352;19.390;2024-03-22T09:03:15;19.60;;;11.70;;
50010;SDS011;35899;50.352;19.390;2024-03-22T09:05:43;21.20;;;12.80;;
50010;SDS011;35899;50.352;19.390;2024-03-22T09:08:26;19.20;;;11.50;;
50010;SDS011;35899;50.352;19.390;2024-03-22T09:10:54;18.60;;;12.30;;
50010;SDS011;35899;50.352;19.390;2024-03-22T09:13:22;20.80;;;12.10;;
50010;SDS011;35899;50.352;19.390;2024-03-22T09:15:56;17.50;;;10.70;;
50010;SDS011;35899;50.352;19.390;2024-03-22T09:18:25;17.60;;;11.20;;
50010;SDS011;35899;50.352;19.390;2024-03-22T09:20:53;18.10;;;10.90;;
50010;SDS011;35899;50.352;19.390;2024-03-22T09:23:21;19.30;;;11.60;;
50010;SDS011;35899;50.352;19.390;2024-03-22T09:25:49;24.80;;;14.60;;
50010;SDS011;35899;50.352;19.390;2024-03-22T09:28:17;19.90;;;13.10;;
50010;SDS011;35899;50.352;19.390;2024-03-22T09:30:45;22.70;;;14.40;;
50010;SDS011;35899;50.352;19.390;2024-03-22T09:33:24;21.50;;;13.70;;
50010;SDS011;35899;50.352;19.390;2024-03-22T09:35:51;22.70;;;13.70;;
50010;SDS011;35899;50.352;19.390;2024-03-22T09:38:19;21.00;;;14.00;;
50010;SDS011;35899;50.352;19.390;2024-03-22T09:40:47;21.50;;;14.30;;
50010;SDS011;35899;50.352;19.390;2024-03-22T09:43:15;20.00;;;12.90;;
50010;SDS011;35899;50.352;19.390;2024-03-22T09:45:43;19.90;;;12.70;;
50010;SDS011;35899;50.352;19.390;2024-03-22T09:48:12;20.00;;;13.30;;
50010;SDS011;35899;50.352;19.390;2024-03-22T09:50:41;19.70;;;12.90;;
50010;SDS011;35899;50.352;19.390;2024-03-22T09:53:09;20.30;;;14.70;;
50010;SDS011;35899;50.352;19.390;2024-03-22T09:55:38;21.30;;;13.80;;
50010;SDS011;35899;50.352;19.390;2024-03-22T09:58:06;18.90;;;14.30;;
50010;SDS011;35899;50.352;19.390;2024-03-22T10:00:34;19.40;;;13.40;;
50010;SDS011;35899;50.352;19.390;2024-03-22T10:03:02;23.10;;;16.90;;
50010;SDS011;35899;50.352;19.390;2024-03-22T10:05:31;16.90;;;11.90;;
50010;SDS011;35899;50.352;19.390;2024-03-22T10:08:00;20.60;;;14.60;;
50010;SDS011;35899;50.352;19.390;2024-03-22T10:10:28;16.90;;;12.00;;
50010;SDS011;35899;50.352;19.390;2024-03-22T10:13:00;18.10;;;12.50;;
50010;SDS011;35899;50.352;19.390;2024-03-22T10:15:29;20.30;;;16.50;;
50010;SDS011;35899;50.352;19.390;2024-03-22T10:17:57;16.60;;;12.00;;
50010;SDS011;35899;50.352;19.390;2024-03-22T10:20:25;17.50;;;13.00;;
50010;SDS011;35899;50.352;19.390;2024-03-22T10:22:56;17.30;;;11.90;;
50010;SDS011;35899;50.352;19.390;2024-03-22T10:25:25;16.70;;;11.50;;
50010;SDS011;35899;50.352;19.390;2024-03-22T10:27:57;15.60;;;10.90;;
50010;SDS011;35899;50.352;19.390;2024-03-22T10:30:25;14.30;;;10.70;;
50010;SDS011;35899;50.352;19.390;2024-03-22T10:32:53;15.10;;;11.50;;
50010;SDS011;35899;50.352;19.390;2024-03-22T10:35:21;16.30;;;12.30;;
50010;SDS011;35899;50.352;19.390;2024-03-22T10:37:49;13.40;;;10.50;;
50010;SDS011;35899;50.352;19.390;2024-03-22T10:40:19;17.70;;;12.10;;
50010;SDS011;35899;50.352;19.390;2024-03-22T10:42:47;16.00;;;11.50;;
50010;SDS011;35899;50.352;19.390;2024-03-22T10:45:15;16.50;;;11.50;;
50010;SDS011;35899;50.352;19.390;2024-03-22T10:47:43;18.00;;;12.60;;
50010;SDS011;35899;50.352;19.390;2024-03-22T10:50:11;15.50;;;12.10;;
50010;SDS011;35899;50.352;19.390;2024-03-22T10:52:42;13.90;;;10.50;;
50010;SDS011;35899;50.352;19.390;2024-03-22T10:55:20;18.20;;;11.90;;
50010;SDS011;35899;50.352;19.390;2024-03-22T10:57:51;22.90;;;16.50;;
50010;SDS011;35899;50.352;19.390;2024-03-22T11:00:29;28.90;;;16.30;;
50010;SDS011;35899;50.352;19.390;2024-03-22T11:03:04;31.20;;;19.60;;
50010;SDS011;35899;50.352;19.390;2024-03-22T11:05:32;30.00;;;18.40;;
50010;SDS011;35899;50.352;19.390;2024-03-22T11:08:03;31.10;;;18.30;;
50010;SDS011;35899;50.352;19.390;2024-03-22T11:10:35;28.00;;;16.30;;
50010;SDS011;35899;50.352;19.390;2024-03-22T11:13:04;27.30;;;15.20;;
50010;SDS011;35899;50.352;19.390;2024-03-22T11:15:33;25.40;;;15.70;;
50010;SDS011;35899;50.352;19.390;2024-03-22T11:18:01;20.80;;;14.10;;
50010;SDS011;35899;50.352;19.390;2024-03-22T11:20:29;25.40;;;14.30;;
50010;SDS011;35899;50.352;19.390;2024-03-22T11:22:56;21.90;;;14.70;;
50010;SDS011;35899;50.352;19.390;2024-03-22T11:25:24;24.30;;;16.80;;
50010;SDS011;35899;50.352;19.390;2024-03-22T11:27:52;25.80;;;17.00;;
50010;SDS011;35899;50.352;19.390;2024-03-22T11:30:19;25.90;;;15.80;;
50010;SDS011;35899;50.352;19.390;2024-03-22T11:32:47;24.10;;;14.60;;
50010;SDS011;35899;50.352;19.390;2024-03-22T11:35:15;21.60;;;14.20;;
50010;SDS011;35899;50.352;19.390;2024-03-22T11:37:42;21.70;;;13.90;;
50010;SDS011;35899;50.352;19.390;2024-03-22T11:40:10;20.80;;;12.90;;
50010;SDS011;35899;50.352;19.390;2024-03-22T11:42:39;20.30;;;13.30;;
50010;SDS011;35899;50.352;19.390;2024-03-22T11:45:14;21.10;;;12.80;;
50010;SDS011;35899;50.352;19.390;2024-03-22T11:47:44;22.10;;;12.30;;
50010;SDS011;35899;50.352;19.390;2024-03-22T11:50:13;20.10;;;13.90;;
50010;SDS011;35899;50.352;19.390;2024-03-22T11:52:43;25.50;;;15.80;;
50010;SDS011;35899;50.352;19.390;2024-03-22T11:55:11;23.10;;;14.30;;
50010;SDS011;35899;50.352;19.390;2024-03-22T11:57:39;24.70;;;15.10;;
50010;SDS011;35899;50.352;19.390;2024-03-22T12:00:09;22.10;;;13.70;;
50010;SDS011;35899;50.352;19.390;2024-03-22T12:02:57;24.00;;;15.00;;
50010;SDS011;35899;50.352;19.390;2024-03-22T12:05:25;22.90;;;15.30;;
50010;SDS011;35899;50.352;19.390;2024-03-22T12:07:53;25.00;;;15.80;;
50010;SDS011;35899;50.352;19.390;2024-03-22T12:10:20;28.20;;;17.70;;
50010;SDS011;35899;50.352;19.390;2024-03-22T12:12:48;27.70;;;18.40;;
50010;SDS011;35899;50.352;19.390;2024-03-22T12:15:16;27.90;;;17.30;;
50010;SDS011;35899;50.352;19.390;2024-03-22T12:17:44;27.90;;;17.30;;
50010;SDS011;35899;50.352;19.390;2024-03-22T12:20:12;28.10;;;17.50;;
50010;SDS011;35899;50.352;19.390;2024-03-22T12:22:40;24.20;;;16.10;;
50010;SDS011;35899;50.352;19.390;2024-03-22T12:25:11;26.30;;;15.70;;
50010;SDS011;35899;50.352;19.390;2024-03-22T12:27:39;24.50;;;14.90;;
50010;SDS011;35899;50.352;19.390;2024-03-22T12:30:07;20.30;;;13.00;;
50010;SDS011;35899;50.352;19.390;2024-03-22T12:32:35;18.70;;;12.30;;
50010;SDS011;35899;50.352;19.390;2024-03-22T12:35:02;21.70;;;14.00;;
50010;SDS011;35899;50.352;19.390;2024-03-22T12:37:30;20.50;;;13.60;;
50010;SDS011;35899;50.352;19.390;2024-03-22T12:39:58;19.60;;;11.70;;
50010;SDS011;35899;50.352;19.390;2024-03-22T12:42:26;22.60;;;13.30;;
50010;SDS011;35899;50.352;19.390;2024-03-22T12:44:54;20.80;;;13.10;;
50010;SDS011;35899;50.352;19.390;2024-03-22T12:47:21;17.00;;;10.80;;
50010;SDS011;35899;50.352;19.390;2024-03-22T12:49:49;12.60;;;9.40;;
50010;SDS011;35899;50.352;19.390;2024-03-22T12:52:17;17.00;;;10.90;;
50010;SDS011;35899;50.352;19.390;2024-03-22T12:54:45;15.60;;;10.10;;
50010;SDS011;35899;50.352;19.390;2024-03-22T12:57:12;15.60;;;10.90;;
50010;SDS011;35899;50.352;19.390;2024-03-22T12:59:40;16.90;;;11.00;;
50010;SDS011;35899;50.352;19.390;2024-03-22T13:02:08;18.70;;;11.60;;
50010;SDS011;35899;50.352;19.390;2024-03-22T13:04:35;16.70;;;10.60;;
50010;SDS011;35899;50.352;19.390;2024-03-22T13:07:03;18.20;;;10.40;;
50010;SDS011;35899;50.352;19.390;2024-03-22T13:09:31;15.90;;;9.70;;
50010;SDS011;35899;50.352;19.390;2024-03-22T13:11:58;16.00;;;10.50;;
50010;SDS011;35899;50.352;19.390;2024-03-22T13:14:26;16.80;;;11.20;;
50010;SDS011;35899;50.352;19.390;2024-03-22T13:16:56;16.70;;;10.70;;
50010;SDS011;35899;50.352;19.390;2024-03-22T13:19:24;16.70;;;10.80;;
50010;SDS011;35899;50.352;19.390;2024-03-22T13:21:53;17.40;;;9.20;;
50010;SDS011;35899;50.352;19.390;2024-03-22T13:24:21;13.70;;;9.20;;
50010;SDS011;35899;50.352;19.390;2024-03-22T13:26:49;13.70;;;9.20;;
50010;SDS011;35899;50.352;19.390;2024-03-22T13:29:18;15.40;;;9.30;;
50010;SDS011;35899;50.352;19.390;2024-03-22T13:31:46;20.70;;;10.40;;
50010;SDS011;35899;50.352;19.390;2024-03-22T13:34:17;15.60;;;9.40;;
50010;SDS011;35899;50.352;19.390;2024-03-22T13:36:45;14.20;;;10.60;;
50010;SDS011;35899;50.352;19.390;2024-03-22T13:39:12;15.10;;;10.00;;
50010;SDS011;35899;50.352;19.390;2024-03-22T13:41:41;12.80;;;9.20;;
50010;SDS011;35899;50.352;19.390;2024-03-22T13:44:09;11.60;;;8.20;;
50010;SDS011;35899;50.352;19.390;2024-03-22T13:46:36;14.90;;;9.20;;
50010;SDS011;35899;50.352;19.390;2024-03-22T13:49:05;13.20;;;10.00;;
50010;SDS011;35899;50.352;19.390;2024-03-22T13:51:41;14.20;;;10.90;;
50010;SDS011;35899;50.352;19.390;2024-03-22T13:54:09;16.10;;;10.40;;
50010;SDS011;35899;50.352;19.390;2024-03-22T13:56:37;14.80;;;9.90;;
50010;SDS011;35899;50.352;19.390;2024-03-22T13:59:05;17.20;;;10.60;;
50010;SDS011;35899;50.352;19.390;2024-03-22T14:01:33;15.60;;;10.90;;
50010;SDS011;35899;50.352;19.390;2024-03-22T14:04:03;17.00;;;11.80;;
50010;SDS011;35899;50.352;19.390;2024-03-22T14:06:32;17.80;;;11.90;;
50010;SDS011;35899;50.352;19.390;2024-03-22T14:09:00;20.00;;;12.00;;
50010;SDS011;35899;50.352;19.390;2024-03-22T14:11:28;16.20;;;11.40;;
50010;SDS011;35899;50.352;19.390;2024-03-22T14:13:59;16.10;;;11.80;;